sensor_id;sensor_type;location;lat;lon;timestamp;pressure;altitude;pressure_sealevel;temperature;humidity
29379;BME280;16362;47.202;15.258;2023-05-23T00:01:38;95915.03;;;13.40;100.00
29379;BME280;16362;47.202;15.258;2023-05-23T00:04:05;95919.16;;;13.36;100.00
29379;BME280;16362;47.202;15.258;2023-05-23T00:06:32;95912.50;;;13.31;100.00
29379;BME280;16362;47.202;15.258;2023-05-23T00:09:00;95908.16;;;13.30;100.00
29379;BME280;16362;47.202;15.258;2023-05-23T00:11:27;95908.56;;;13.27;100.00
29379;BME280;16362;47.202;15.258;2023-05-23T00:13:55;95903.78;;;13.23;100.00
29379;BME280;16362;47.202;15.258;2023-05-23T00:16:23;95910.38;;;13.20;100.00
29379;BME280;16362;47.202;15.258;2023-05-23T00:18:50;95907.50;;;13.22;100.00
29379;BME280;16362;47.202;15.258;2023-05-23T00:21:17;95910.19;;;13.22;100.00
29379;BME280;16362;47.202;15.258;2023-05-23T00:23:44;95911.44;;;13.19;100.00
29379;BME280;16362;47.202;15.258;2023-05-23T00:26:11;95904.78;;;13.15;100.00
29379;BME280;16362;47.202;15.258;2023-05-23T00:28:37;95897.16;;;13.12;100.00
29379;BME280;16362;47.202;15.258;2023-05-23T00:31:04;95896.75;;;13.08;100.00
29379;BME280;16362;47.202;15.258;2023-05-23T00:33:31;95903.34;;;13.06;100.00
29379;BME280;16362;47.202;15.258;2023-05-23T00:35:59;95905.16;;;13.05;100.00
29379;BME280;16362;47.202;15.258;2023-05-23T00:38:26;95896.31;;;13.05;100.00
29379;BME280;16362;47.202;15.258;2023-05-23T00:40:53;95900.00;;;13.04;100.00
29379;BME280;16362;47.202;15.258;2023-05-23T00:43:20;95903.09;;;13.01;100.00
29379;BME280;16362;47.202;15.258;2023-05-23T00:45:48;95895.25;;;12.99;100.00
29379;BME280;16362;47.202;15.258;2023-05-23T00:48:15;95890.09;;;12.97;100.00
29379;BME280;16362;47.202;15.258;2023-05-23T00:50:42;95904.50;;;12.96;100.00
29379;BME280;16362;47.202;15.258;2023-05-23T00:53:09;95895.84;;;12.94;100.00
29379;BME280;16362;47.202;15.258;2023-05-23T00:55:36;95899.53;;;12.93;100.00
29379;BME280;16362;47.202;15.258;2023-05-23T00:58:05;95892.16;;;12.95;100.00
29379;BME280;16362;47.202;15.258;2023-05-23T01:00:32;95894.59;;;12.90;100.00
29379;BME280;16362;47.202;15.258;2023-05-23T01:03:00;95890.25;;;12.89;100.00
29379;BME280;16362;47.202;15.258;2023-05-23T01:05:27;95893.13;;;12.88;100.00
29379;BME280;16362;47.202;15.258;2023-05-23T01:07:54;95887.97;;;12.86;100.00
29379;BME280;16362;47.202;15.258;2023-05-23T01:10:26;95886.31;;;12.85;100.00
29379;BME280;16362;47.202;15.258;2023-05-23T01:16:46;95885.06;;;12.81;100.00
29379;BME280;16362;47.202;15.258;2023-05-23T01:22:11;95891.81;;;12.77;100.00
29379;BME280;16362;47.202;15.258;2023-05-23T01:24:56;95881.31;;;12.75;100.00
29379;BME280;16362;47.202;15.258;2023-05-23T01:30:03;95878.19;;;12.72;100.00
29379;BME280;16362;47.202;15.258;2023-05-23T01:32:33;95872.84;;;12.72;100.00
29379;BME280;16362;47.202;15.258;2023-05-23T01:35:03;95874.91;;;12.70;100.00
29379;BME280;16362;47.202;15.258;2023-05-23T01:37:30;95868.91;;;12.68;100.00
29379;BME280;16362;47.202;15.258;2023-05-23T01:39:57;95871.38;;;12.62;100.00
29379;BME280;16362;47.202;15.258;2023-05-23T01:42:24;95869.06;;;12.59;100.00
29379;BME280;16362;47.202;15.258;2023-05-23T01:44:51;95866.41;;;12.59;100.00
29379;BME280;16362;47.202;15.258;2023-05-23T01:47:18;95857.56;;;12.59;100.00
29379;BME280;16362;47.202;15.258;2023-05-23T01:49:46;95867.19;;;12.53;100.00
29379;BME280;16362;47.202;15.258;2023-05-23T01:52:13;95869.22;;;12.51;100.00
29379;BME280;16362;47.202;15.258;2023-05-23T01:54:41;95868.56;;;12.42;100.00
29379;BME280;16362;47.202;15.258;2023-05-23T01:57:09;95868.56;;;12.42;100.00
29379;BME280;16362;47.202;15.258;2023-05-23T01:59:36;95872.06;;;12.43;100.00
29379;BME280;16362;47.202;15.258;2023-05-23T02:02:04;95872.06;;;12.43;100.00
29379;BME280;16362;47.202;15.258;2023-05-23T02:04:32;95870.81;;;12.39;100.00
29379;BME280;16362;47.202;15.258;2023-05-23T02:06:59;95873.47;;;12.39;100.00
29379;BME280;16362;47.202;15.258;2023-05-23T02:09:26;95863.78;;;12.38;100.00
29379;BME280;16362;47.202;15.258;2023-05-23T02:11:53;95869.13;;;12.38;100.00
29379;BME280;16362;47.202;15.258;2023-05-23T02:14:20;95866.88;;;12.35;100.00
29379;BME280;16362;47.202;15.258;2023-05-23T02:16:47;95867.47;;;12.30;100.00
29379;BME280;16362;47.202;15.258;2023-05-23T02:19:13;95860.44;;;12.29;100.00
29379;BME280;16362;47.202;15.258;2023-05-23T02:21:40;95856.94;;;12.28;100.00
29379;BME280;16362;47.202;15.258;2023-05-23T02:24:07;95856.13;;;12.28;100.00
29379;BME280;16362;47.202;15.258;2023-05-23T02:26:34;95848.09;;;12.28;100.00
29379;BME280;16362;47.202;15.258;2023-05-23T02:29:01;95841.28;;;12.25;100.00
29379;BME280;16362;47.202;15.258;2023-05-23T02:31:28;95842.50;;;12.23;100.00
29379;BME280;16362;47.202;15.258;2023-05-23T02:33:55;95837.34;;;12.21;100.00
29379;BME280;16362;47.202;15.258;2023-05-23T02:36:22;95839.41;;;12.19;100.00
29379;BME280;16362;47.202;15.258;2023-05-23T02:38:48;95850.72;;;12.21;100.00
29379;BME280;16362;47.202;15.258;2023-05-23T02:41:16;95841.63;;;12.16;100.00
29379;BME280;16362;47.202;15.258;2023-05-23T02:43:45;95841.81;;;12.14;100.00
29379;BME280;16362;47.202;15.258;2023-05-23T02:46:12;95840.16;;;12.13;100.00
29379;BME280;16362;47.202;15.258;2023-05-23T02:48:39;95843.03;;;12.11;100.00
29379;BME280;16362;47.202;15.258;2023-05-23T02:51:06;95832.53;;;12.10;100.00
29379;BME280;16362;47.202;15.258;2023-05-23T02:53:33;95829.88;;;12.10;100.00
29379;BME280;16362;47.202;15.258;2023-05-23T02:56:00;95830.88;;;12.09;100.00
29379;BME280;16362;47.202;15.258;2023-05-23T02:58:27;95827.75;;;12.05;100.00
29379;BME280;16362;47.202;15.258;2023-05-23T03:00:54;95830.81;;;12.02;100.00
29379;BME280;16362;47.202;15.258;2023-05-23T03:03:21;95827.69;;;11.99;100.00
29379;BME280;16362;47.202;15.258;2023-05-23T03:05:48;95834.25;;;11.96;100.00
29379;BME280;16362;47.202;15.258;2023-05-23T03:08:14;95833.44;;;11.95;100.00
29379;BME280;16362;47.202;15.258;2023-05-23T03:10:41;95833.44;;;11.95;100.00
29379;BME280;16362;47.202;15.258;2023-05-23T03:13:08;95828.28;;;11.94;100.00
29379;BME280;16362;47.202;15.258;2023-05-23T03:15:35;95822.75;;;11.95;100.00
29379;BME280;16362;47.202;15.258;2023-05-23T03:18:02;95822.75;;;11.95;100.00
29379;BME280;16362;47.202;15.258;2023-05-23T03:20:29;95816.75;;;11.93;100.00
29379;BME280;16362;47.202;15.258;2023-05-23T03:22:56;95820.25;;;11.94;100.00
29379;BME280;16362;47.202;15.258;2023-05-23T03:25:23;95820.44;;;11.92;100.00
29379;BME280;16362;47.202;15.258;2023-05-23T03:27:50;95821.84;;;11.88;100.00
29379;BME280;16362;47.202;15.258;2023-05-23T03:30:16;95814.25;;;11.92;100.00
29379;BME280;16362;47.202;15.258;2023-05-23T03:32:43;95816.59;;;11.95;100.00
29379;BME280;16362;47.202;15.258;2023-05-23T03:35:11;95816.59;;;11.95;100.00
29379;BME280;16362;47.202;15.258;2023-05-23T03:37:37;95812.72;;;11.98;100.00
29379;BME280;16362;47.202;15.258;2023-05-23T03:40:05;95826.69;;;12.00;100.00
29379;BME280;16362;47.202;15.258;2023-05-23T03:42:32;95823.81;;;12.01;100.00
29379;BME280;16362;47.202;15.258;2023-05-23T03:44:59;95831.66;;;12.03;100.00
29379;BME280;16362;47.202;15.258;2023-05-23T03:47:26;95832.28;;;12.05;100.00
29379;BME280;16362;47.202;15.258;2023-05-23T03:49:53;95830.22;;;12.07;100.00
29379;BME280;16362;47.202;15.258;2023-05-23T03:52:20;95829.41;;;12.06;100.00
29379;BME280;16362;47.202;15.258;2023-05-23T03:54:47;95829.22;;;12.08;100.00
29379;BME280;16362;47.202;15.258;2023-05-23T03:57:13;95830.69;;;12.10;100.00
29379;BME280;16362;47.202;15.258;2023-05-23T03:59:40;95828.44;;;12.14;100.00
29379;BME280;16362;47.202;15.258;2023-05-23T04:02:07;95828.25;;;12.16;100.00
29379;BME280;16362;47.202;15.258;2023-05-23T04:04:34;95837.09;;;12.16;100.00
29379;BME280;16362;47.202;15.258;2023-05-23T04:07:01;95841.44;;;12.17;100.00
29379;BME280;16362;47.202;15.258;2023-05-23T04:09:28;95841.44;;;12.17;100.00
29379;BME280;16362;47.202;15.258;2023-05-23T04:11:57;95841.44;;;12.17;100.00
29379;BME280;16362;47.202;15.258;2023-05-23T04:14:23;95838.75;;;12.17;100.00
29379;BME280;16362;47.202;15.258;2023-05-23T04:16:50;95844.09;;;12.17;100.00
29379;BME280;16362;47.202;15.258;2023-05-23T04:19:18;95846.38;;;12.20;100.00
29379;BME280;16362;47.202;15.258;2023-05-23T04:21:45;95842.69;;;12.21;100.00
29379;BME280;16362;47.202;15.258;2023-05-23T04:24:11;95839.63;;;12.24;100.00
29379;BME280;16362;47.202;15.258;2023-05-23T04:26:38;95841.53;;;12.30;100.00
29379;BME280;16362;47.202;15.258;2023-05-23T04:29:05;95842.34;;;12.31;100.00
29379;BME280;16362;47.202;15.258;2023-05-23T04:31:32;95836.63;;;12.34;100.00
29379;BME280;16362;47.202;15.258;2023-05-23T04:33:59;95832.91;;;12.35;100.00
29379;BME280;16362;47.202;15.258;2023-05-23T04:36:28;95834.34;;;12.38;100.00
29379;BME280;16362;47.202;15.258;2023-05-23T04:38:55;95842.81;;;12.41;100.00
29379;BME280;16362;47.202;15.258;2023-05-23T04:41:22;95841.63;;;12.44;100.00
29379;BME280;16362;47.202;15.258;2023-05-23T04:43:49;95842.47;;;12.51;100.00
29379;BME280;16362;47.202;15.258;2023-05-23T04:46:20;95838.81;;;12.59;100.00
29379;BME280;16362;47.202;15.258;2023-05-23T04:48:53;95832.25;;;12.61;100.00
29379;BME280;16362;47.202;15.258;2023-05-23T04:51:21;95838.41;;;12.62;100.00
29379;BME280;16362;47.202;15.258;2023-05-23T04:53:48;95835.31;;;12.58;100.00
29379;BME280;16362;47.202;15.258;2023-05-23T04:56:15;95831.63;;;12.66;100.00
29379;BME280;16362;47.202;15.258;2023-05-23T04:58:46;95831.91;;;12.78;100.00
29379;BME280;16362;47.202;15.258;2023-05-23T05:01:13;95833.19;;;12.89;100.00
29379;BME280;16362;47.202;15.258;2023-05-23T05:03:41;95834.97;;;13.17;100.00
29379;BME280;16362;47.202;15.258;2023-05-23T05:06:08;95830.09;;;13.47;100.00
29379;BME280;16362;47.202;15.258;2023-05-23T05:08:35;95820.88;;;13.76;100.00
29379;BME280;16362;47.202;15.258;2023-05-23T05:11:02;95819.81;;;14.04;100.00
29379;BME280;16362;47.202;15.258;2023-05-23T05:13:29;95809.50;;;14.21;100.00
29379;BME280;16362;47.202;15.258;2023-05-23T05:15:56;95809.44;;;14.55;100.00
29379;BME280;16362;47.202;15.258;2023-05-23T05:18:22;95813.13;;;14.74;100.00
29379;BME280;16362;47.202;15.258;2023-05-23T05:20:49;95811.94;;;15.08;100.00
29379;BME280;16362;47.202;15.258;2023-05-23T05:23:16;95808.88;;;15.43;100.00
29379;BME280;16362;47.202;15.258;2023-05-23T05:25:43;95808.56;;;15.58;100.00
29379;BME280;16362;47.202;15.258;2023-05-23T05:28:10;95802.75;;;15.93;100.00
29379;BME280;16362;47.202;15.258;2023-05-23T05:30:37;95806.19;;;16.26;100.00
29379;BME280;16362;47.202;15.258;2023-05-23T05:33:04;95804.06;;;16.53;100.00
29379;BME280;16362;47.202;15.258;2023-05-23T05:35:33;95798.25;;;16.56;100.00
29379;BME280;16362;47.202;15.258;2023-05-23T05:38:00;95802.00;;;16.74;100.00
29379;BME280;16362;47.202;15.258;2023-05-23T05:40:31;95802.84;;;16.93;100.00
29379;BME280;16362;47.202;15.258;2023-05-23T05:42:58;95802.56;;;17.13;100.00
29379;BME280;16362;47.202;15.258;2023-05-23T05:45:25;95798.47;;;17.41;100.00
29379;BME280;16362;47.202;15.258;2023-05-23T05:47:52;95798.81;;;17.75;100.00
29379;BME280;16362;47.202;15.258;2023-05-23T05:50:19;95796.06;;;17.93;100.00
29379;BME280;16362;47.202;15.258;2023-05-23T05:52:45;95794.19;;;18.06;100.00
29379;BME280;16362;47.202;15.258;2023-05-23T05:55:12;95790.34;;;18.25;100.00
29379;BME280;16362;47.202;15.258;2023-05-23T05:57:40;95794.91;;;18.37;100.00
29379;BME280;16362;47.202;15.258;2023-05-23T06:00:11;95793.97;;;18.43;100.00
29379;BME280;16362;47.202;15.258;2023-05-23T06:02:41;95789.59;;;18.54;100.00
29379;BME280;16362;47.202;15.258;2023-05-23T06:05:17;95790.56;;;18.47;100.00
29379;BME280;16362;47.202;15.258;2023-05-23T06:07:47;95791.03;;;18.56;100.00
29379;BME280;16362;47.202;15.258;2023-05-23T06:10:14;95781.00;;;18.92;98.78
29379;BME280;16362;47.202;15.258;2023-05-23T06:12:41;95782.09;;;19.20;98.13
29379;BME280;16362;47.202;15.258;2023-05-23T06:15:08;95780.34;;;19.43;97.48
29379;BME280;16362;47.202;15.258;2023-05-23T06:17:36;95783.03;;;19.72;94.07
29379;BME280;16362;47.202;15.258;2023-05-23T06:20:03;95778.16;;;19.85;94.05
29379;BME280;16362;47.202;15.258;2023-05-23T06:22:31;95786.31;;;20.02;92.39
29379;BME280;16362;47.202;15.258;2023-05-23T06:24:57;95772.50;;;19.87;92.24
29379;BME280;16362;47.202;15.258;2023-05-23T06:27:24;95778.47;;;20.06;93.75
29379;BME280;16362;47.202;15.258;2023-05-23T06:29:51;95776.56;;;20.41;91.26
29379;BME280;16362;47.202;15.258;2023-05-23T06:32:18;95775.09;;;20.33;90.79
29379;BME280;16362;47.202;15.258;2023-05-23T06:34:45;95776.16;;;20.49;90.51
29379;BME280;16362;47.202;15.258;2023-05-23T06:37:11;95779.06;;;20.64;89.21
29379;BME280;16362;47.202;15.258;2023-05-23T06:39:38;95786.06;;;20.77;88.85
29379;BME280;16362;47.202;15.258;2023-05-23T06:42:05;95771.84;;;20.70;86.53
29379;BME280;16362;47.202;15.258;2023-05-23T06:44:32;95773.78;;;20.35;87.56
29379;BME280;16362;47.202;15.258;2023-05-23T06:46:59;95771.25;;;20.46;89.75
29379;BME280;16362;47.202;15.258;2023-05-23T06:49:26;95779.13;;;20.30;86.33
29379;BME280;16362;47.202;15.258;2023-05-23T06:51:53;95768.91;;;20.72;89.63
29379;BME280;16362;47.202;15.258;2023-05-23T06:54:20;95765.50;;;21.03;89.67
29379;BME280;16362;47.202;15.258;2023-05-23T06:56:47;95760.00;;;20.98;82.90
29379;BME280;16362;47.202;15.258;2023-05-23T06:59:13;95769.34;;;20.85;84.97
29379;BME280;16362;47.202;15.258;2023-05-23T07:01:40;95763.72;;;20.70;85.29
29379;BME280;16362;47.202;15.258;2023-05-23T07:04:07;95764.09;;;20.79;83.78
29379;BME280;16362;47.202;15.258;2023-05-23T07:06:34;95765.28;;;21.10;85.64
29379;BME280;16362;47.202;15.258;2023-05-23T07:09:02;95763.84;;;21.52;86.48
29379;BME280;16362;47.202;15.258;2023-05-23T07:11:29;95758.47;;;21.84;85.80
29379;BME280;16362;47.202;15.258;2023-05-23T07:13:57;95752.22;;;22.21;83.54
29379;BME280;16362;47.202;15.258;2023-05-23T07:16:24;95751.66;;;22.52;79.79
29379;BME280;16362;47.202;15.258;2023-05-23T07:18:51;95747.19;;;22.83;79.72
29379;BME280;16362;47.202;15.258;2023-05-23T07:21:18;95738.81;;;23.05;77.88
29379;BME280;16362;47.202;15.258;2023-05-23T07:23:45;95743.34;;;23.48;78.60
29379;BME280;16362;47.202;15.258;2023-05-23T07:26:11;95738.47;;;23.65;73.93
29379;BME280;16362;47.202;15.258;2023-05-23T07:28:38;95733.56;;;23.57;72.45
29379;BME280;16362;47.202;15.258;2023-05-23T07:31:05;95739.50;;;23.49;73.87
29379;BME280;16362;47.202;15.258;2023-05-23T07:33:34;95729.97;;;23.36;66.72
29379;BME280;16362;47.202;15.258;2023-05-23T07:36:02;95723.97;;;23.39;67.67
29379;BME280;16362;47.202;15.258;2023-05-23T07:38:29;95732.44;;;23.48;68.36
29379;BME280;16362;47.202;15.258;2023-05-23T07:40:56;95726.47;;;23.51;69.95
29379;BME280;16362;47.202;15.258;2023-05-23T07:43:37;95728.38;;;23.50;66.28
29379;BME280;16362;47.202;15.258;2023-05-23T07:46:04;95714.44;;;23.36;66.75
29379;BME280;16362;47.202;15.258;2023-05-23T07:48:30;95722.03;;;23.19;70.17
29379;BME280;16362;47.202;15.258;2023-05-23T07:50:57;95721.53;;;23.43;68.04
29379;BME280;16362;47.202;15.258;2023-05-23T07:53:24;95719.63;;;23.33;66.11
29379;BME280;16362;47.202;15.258;2023-05-23T07:55:51;95723.72;;;23.46;65.66
29379;BME280;16362;47.202;15.258;2023-05-23T07:58:18;95715.84;;;23.70;63.68
29379;BME280;16362;47.202;15.258;2023-05-23T08:00:45;95715.06;;;23.90;64.67
29379;BME280;16362;47.202;15.258;2023-05-23T08:03:12;95718.59;;;24.01;62.04
29379;BME280;16362;47.202;15.258;2023-05-23T08:05:39;95715.84;;;24.21;61.15
29379;BME280;16362;47.202;15.258;2023-05-23T08:08:06;95709.84;;;24.25;60.60
29379;BME280;16362;47.202;15.258;2023-05-23T08:10:33;95713.34;;;24.51;61.62
29379;BME280;16362;47.202;15.258;2023-05-23T08:12:59;95707.63;;;24.52;60.33
29379;BME280;16362;47.202;15.258;2023-05-23T08:15:29;95714.72;;;24.38;60.24
29379;BME280;16362;47.202;15.258;2023-05-23T08:17:56;95702.97;;;24.53;60.40
29379;BME280;16362;47.202;15.258;2023-05-23T08:20:25;95694.84;;;24.32;62.11
29379;BME280;16362;47.202;15.258;2023-05-23T08:23:00;95706.22;;;24.60;59.18
29379;BME280;16362;47.202;15.258;2023-05-23T08:25:27;95700.22;;;24.74;56.86
29379;BME280;16362;47.202;15.258;2023-05-23T08:27:58;95695.84;;;24.73;60.21
29379;BME280;16362;47.202;15.258;2023-05-23T08:30:27;95698.28;;;24.79;56.70
29379;BME280;16362;47.202;15.258;2023-05-23T08:32:55;95695.31;;;24.60;55.51
29379;BME280;16362;47.202;15.258;2023-05-23T08:35:22;95691.97;;;24.89;58.47
29379;BME280;16362;47.202;15.258;2023-05-23T08:37:49;95690.47;;;25.12;55.06
29379;BME280;16362;47.202;15.258;2023-05-23T08:40:19;95691.09;;;25.49;55.57
29379;BME280;16362;47.202;15.258;2023-05-23T08:42:48;95679.69;;;25.76;54.99
29379;BME280;16362;47.202;15.258;2023-05-23T08:45:16;95695.94;;;25.57;56.33
29379;BME280;16362;47.202;15.258;2023-05-23T08:47:44;95684.06;;;25.77;55.94
29379;BME280;16362;47.202;15.258;2023-05-23T08:50:16;95681.31;;;25.77;53.23
29379;BME280;16362;47.202;15.258;2023-05-23T08:52:55;95686.81;;;25.72;54.94
29379;BME280;16362;47.202;15.258;2023-05-23T08:55:24;95678.72;;;25.91;53.35
29379;BME280;16362;47.202;15.258;2023-05-23T08:57:55;95673.25;;;25.91;53.49
29379;BME280;16362;47.202;15.258;2023-05-23T09:00:24;95677.00;;;26.00;51.72
29379;BME280;16362;47.202;15.258;2023-05-23T09:02:51;95675.25;;;26.44;53.62
29379;BME280;16362;47.202;15.258;2023-05-23T09:05:20;95670.44;;;26.36;51.58
29379;BME280;16362;47.202;15.258;2023-05-23T09:07:47;95666.41;;;26.28;47.10
29379;BME280;16362;47.202;15.258;2023-05-23T09:10:15;95661.28;;;26.21;51.25
29379;BME280;16362;47.202;15.258;2023-05-23T09:12:48;95658.16;;;25.99;50.83
29379;BME280;16362;47.202;15.258;2023-05-23T09:15:15;95658.47;;;25.97;54.81
29379;BME280;16362;47.202;15.258;2023-05-23T09:17:43;95665.94;;;26.21;52.69
29379;BME280;16362;47.202;15.258;2023-05-23T09:20:15;95661.38;;;26.35;48.90
29379;BME280;16362;47.202;15.258;2023-05-23T09:22:47;95654.88;;;26.31;48.10
29379;BME280;16362;47.202;15.258;2023-05-23T09:25:14;95653.38;;;26.20;46.76
29379;BME280;16362;47.202;15.258;2023-05-23T09:27:42;95650.03;;;26.23;49.28
29379;BME280;16362;47.202;15.258;2023-05-23T09:30:13;95647.88;;;26.20;48.84
29379;BME280;16362;47.202;15.258;2023-05-23T09:32:40;95634.34;;;26.34;45.11
29379;BME280;16362;47.202;15.258;2023-05-23T09:35:08;95632.41;;;26.83;45.10
29379;BME280;16362;47.202;15.258;2023-05-23T09:37:43;95631.91;;;27.00;41.74
29379;BME280;16362;47.202;15.258;2023-05-23T09:40:13;95635.44;;;27.00;40.15
29379;BME280;16362;47.202;15.258;2023-05-23T09:42:45;95640.53;;;26.88;45.61
29379;BME280;16362;47.202;15.258;2023-05-23T09:45:13;95631.66;;;26.53;45.30
29379;BME280;16362;47.202;15.258;2023-05-23T09:47:50;95636.38;;;26.47;49.77
29379;BME280;16362;47.202;15.258;2023-05-23T09:50:18;95639.22;;;26.61;48.82
29379;BME280;16362;47.202;15.258;2023-05-23T09:52:46;95635.00;;;26.74;48.51
29379;BME280;16362;47.202;15.258;2023-05-23T09:55:13;95632.09;;;27.03;43.30
29379;BME280;16362;47.202;15.258;2023-05-23T09:57:41;95630.75;;;26.82;43.39
29379;BME280;16362;47.202;15.258;2023-05-23T10:00:10;95636.94;;;26.68;43.38
29379;BME280;16362;47.202;15.258;2023-05-23T10:05:45;95621.59;;;26.72;45.64
29379;BME280;16362;47.202;15.258;2023-05-23T10:08:26;95621.63;;;27.11;41.71
29379;BME280;16362;47.202;15.258;2023-05-23T10:13:27;95607.25;;;26.81;41.44
29379;BME280;16362;47.202;15.258;2023-05-23T10:15:58;95609.59;;;26.68;39.93
29379;BME280;16362;47.202;15.258;2023-05-23T10:18:28;95605.75;;;26.45;40.84
29379;BME280;16362;47.202;15.258;2023-05-23T10:21:01;95617.56;;;26.41;41.95
29379;BME280;16362;47.202;15.258;2023-05-23T10:23:30;95609.13;;;26.37;42.20
29379;BME280;16362;47.202;15.258;2023-05-23T10:25:57;95608.56;;;26.40;39.27
29379;BME280;16362;47.202;15.258;2023-05-23T10:28:24;95615.59;;;26.46;51.42
29379;BME280;16362;47.202;15.258;2023-05-23T10:30:52;95602.25;;;26.39;48.42
29379;BME280;16362;47.202;15.258;2023-05-23T10:33:19;95609.66;;;26.39;50.87
29379;BME280;16362;47.202;15.258;2023-05-23T10:36:07;95611.00;;;26.42;45.34
29379;BME280;16362;47.202;15.258;2023-05-23T10:38:41;95603.09;;;26.40;42.12
29379;BME280;16362;47.202;15.258;2023-05-23T10:41:27;95603.78;;;26.51;44.76
29379;BME280;16362;47.202;15.258;2023-05-23T10:44:22;95587.81;;;26.82;43.49
29379;BME280;16362;47.202;15.258;2023-05-23T10:46:54;95587.13;;;27.10;47.30
29379;BME280;16362;47.202;15.258;2023-05-23T10:49:43;95585.00;;;27.59;43.69
29379;BME280;16362;47.202;15.258;2023-05-23T10:52:13;95581.50;;;27.20;38.44
29379;BME280;16362;47.202;15.258;2023-05-23T10:54:52;95572.94;;;27.08;43.83
29379;BME280;16362;47.202;15.258;2023-05-23T10:57:21;95561.34;;;27.30;40.13
29379;BME280;16362;47.202;15.258;2023-05-23T10:59:51;95568.50;;;27.12;39.18
29379;BME280;16362;47.202;15.258;2023-05-23T11:02:25;95570.16;;;26.69;41.17
29379;BME280;16362;47.202;15.258;2023-05-23T11:07:41;95573.50;;;26.42;46.37
29379;BME280;16362;47.202;15.258;2023-05-23T11:10:12;95568.00;;;26.23;47.86
29379;BME280;16362;47.202;15.258;2023-05-23T11:12:43;95576.09;;;26.33;45.59
29379;BME280;16362;47.202;15.258;2023-05-23T11:17:54;95577.84;;;25.95;47.11
29379;BME280;16362;47.202;15.258;2023-05-23T11:20:29;95583.25;;;25.76;45.65
29379;BME280;16362;47.202;15.258;2023-05-23T11:23:00;95580.88;;;25.64;49.23
29379;BME280;16362;47.202;15.258;2023-05-23T11:25:42;95563.38;;;25.35;47.56
29379;BME280;16362;47.202;15.258;2023-05-23T11:28:10;95586.50;;;25.09;52.68
29379;BME280;16362;47.202;15.258;2023-05-23T11:30:38;95593.13;;;24.97;52.70
29379;BME280;16362;47.202;15.258;2023-05-23T11:35:35;95627.69;;;24.62;58.04
29379;BME280;16362;47.202;15.258;2023-05-23T11:38:03;95644.13;;;24.31;51.73
29379;BME280;16362;47.202;15.258;2023-05-23T11:40:33;95650.19;;;24.08;55.71
29379;BME280;16362;47.202;15.258;2023-05-23T11:43:02;95661.66;;;23.74;52.97
29379;BME280;16362;47.202;15.258;2023-05-23T11:45:30;95659.75;;;23.53;46.75
29379;BME280;16362;47.202;15.258;2023-05-23T11:47:58;95674.16;;;23.18;50.69
29379;BME280;16362;47.202;15.258;2023-05-23T11:50:25;95665.06;;;22.97;49.85
29379;BME280;16362;47.202;15.258;2023-05-23T11:52:54;95675.53;;;22.52;58.47
29379;BME280;16362;47.202;15.258;2023-05-23T11:55:21;95689.69;;;22.11;69.90
29379;BME280;16362;47.202;15.258;2023-05-23T11:57:49;95696.16;;;21.13;79.14
29379;BME280;16362;47.202;15.258;2023-05-23T12:00:18;95717.06;;;20.12;87.95
29379;BME280;16362;47.202;15.258;2023-05-23T12:02:45;95740.75;;;19.08;97.71
29379;BME280;16362;47.202;15.258;2023-05-23T12:05:14;95754.16;;;18.62;100.00
29379;BME280;16362;47.202;15.258;2023-05-23T12:07:43;95777.31;;;18.22;100.00
29379;BME280;16362;47.202;15.258;2023-05-23T12:10:10;95789.41;;;17.65;100.00
29379;BME280;16362;47.202;15.258;2023-05-23T12:12:37;95802.34;;;17.75;100.00
29379;BME280;16362;47.202;15.258;2023-05-23T12:15:07;95818.59;;;17.57;100.00
29379;BME280;16362;47.202;15.258;2023-05-23T12:17:38;95832.38;;;17.18;100.00
29379;BME280;16362;47.202;15.258;2023-05-23T12:20:10;95840.50;;;16.99;100.00
29379;BME280;16362;47.202;15.258;2023-05-23T12:22:37;95845.59;;;16.89;100.00
29379;BME280;16362;47.202;15.258;2023-05-23T12:25:07;95864.25;;;16.84;100.00
29379;BME280;16362;47.202;15.258;2023-05-23T12:27:35;95875.53;;;16.99;100.00
29379;BME280;16362;47.202;15.258;2023-05-23T12:30:04;95876.88;;;16.90;100.00
29379;BME280;16362;47.202;15.258;2023-05-23T12:32:32;95870.41;;;16.91;100.00
29379;BME280;16362;47.202;15.258;2023-05-23T12:34:59;95867.38;;;17.06;100.00
29379;BME280;16362;47.202;15.258;2023-05-23T12:37:26;95863.00;;;17.24;100.00
29379;BME280;16362;47.202;15.258;2023-05-23T12:39:53;95866.94;;;17.40;100.00
29379;BME280;16362;47.202;15.258;2023-05-23T12:42:20;95874.06;;;17.53;100.00
29379;BME280;16362;47.202;15.258;2023-05-23T12:44:52;95872.31;;;17.58;100.00
29379;BME280;16362;47.202;15.258;2023-05-23T12:47:19;95869.16;;;17.61;100.00
29379;BME280;16362;47.202;15.258;2023-05-23T12:49:46;95863.41;;;17.58;100.00
29379;BME280;16362;47.202;15.258;2023-05-23T12:52:13;95865.72;;;17.54;100.00
29379;BME280;16362;47.202;15.258;2023-05-23T12:54:40;95870.81;;;17.32;100.00
29379;BME280;16362;47.202;15.258;2023-05-23T12:57:07;95873.28;;;17.33;100.00
29379;BME280;16362;47.202;15.258;2023-05-23T12:59:34;95864.88;;;17.42;100.00
29379;BME280;16362;47.202;15.258;2023-05-23T13:02:01;95866.59;;;17.36;100.00
29379;BME280;16362;47.202;15.258;2023-05-23T13:04:28;95863.38;;;17.09;100.00
29379;BME280;16362;47.202;15.258;2023-05-23T13:06:57;95865.03;;;17.28;100.00
29379;BME280;16362;47.202;15.258;2023-05-23T13:09:24;95859.94;;;17.39;100.00
29379;BME280;16362;47.202;15.258;2023-05-23T13:11:51;95858.84;;;17.40;100.00
29379;BME280;16362;47.202;15.258;2023-05-23T13:14:18;95852.69;;;17.02;100.00